Frederick, Oklahoma
Current Conditions -  °F | °C
As of 3:53 PM on Thursday 23 Oct 2014 (Local Time) from KFDR Reporting Station
Clear Clear  
Wind Chill: 81°   Ceiling: Unl
Heat Index: 82°   Visibility: 10mi
Dew Point: 60°   Wind: 12mph
Humidity: 49%   Direction: 200°SSW
Pressure: 30.01"   Gusts: NA
Location:  34.39°N, 99.02°W
Report Text: KFDR 232053Z AUTO 20010KT 10SM CLR 27/16 A3001 RMK AO2 SLP147 T02720156 56025
Loading
Personal Weather Stations






























Interactive Weather Map
Tropical Storm Tracking
New forecast layout! Learn more

10-Day Weather Forecast

Advertisements
Track Severe Weather on mobile